Time;durP1;ratioP1;P1;durP2;ratioP2;P2;SDS_P1;SDS_P2;PMS_P1;PMS_P2;Temp;Humidity;BMP_temperature;BMP_pressure;BME280_temperature;BME280_humidity;BME280_pressure;Samples;Min_cycle;Max_cycle;Signal;HPM_P1;HPM_P2
2022/08/30 00:03:05;;;;;;;19.45;8.02;;;;;;;23.73;58.75;98641.00;5027501;28;20144;-74
2022/08/30 00:05:33;;;;;;;22.63;8.95;;;;;;;23.58;59.17;98644.47;4994999;28;20052;-75
2022/08/30 00:07:59;;;;;;;20.20;9.50;;;;;;;23.56;59.01;98645.81;5028796;28;20417;-74
2022/08/30 00:10:27;;;;;;;22.83;9.82;;;;;;;23.60;59.43;98650.47;5011798;28;20140;-74
2022/08/30 00:12:56;;;;;;;20.15;9.27;;;;;;;23.68;59.26;98651.84;5012715;28;20064;-74
2022/08/30 00:15:25;;;;;;;18.55;8.68;;;;;;;23.71;59.04;98659.44;5029153;28;20038;-74
2022/08/30 00:17:52;;;;;;;22.33;9.30;;;;;;;23.61;59.29;98653.97;5013090;28;20037;-75
2022/08/30 00:20:22;;;;;;;20.40;9.90;;;;;;;23.71;59.32;98654.03;5030782;28;20048;-74
2022/08/30 00:22:49;;;;;;;27.35;10.13;;;;;;;23.58;59.27;98649.06;4997794;28;20049;-74
2022/08/30 00:25:16;;;;;;;22.85;9.38;;;;;;;23.66;59.56;98645.88;4981625;28;20041;-74
2022/08/30 00:27:44;;;;;;;22.80;9.45;;;;;;;23.57;59.47;98648.25;5014098;28;20038;-74
2022/08/30 00:30:11;;;;;;;21.80;9.00;;;;;;;23.63;59.45;98651.81;5030540;28;20497;-74
2022/08/30 00:32:37;;;;;;;18.52;9.20;;;;;;;23.43;60.04;98649.84;5031879;28;20045;-74
2022/08/30 00:35:04;;;;;;;24.42;9.20;;;;;;;23.55;60.14;98649.59;4999751;28;20045;-73
2022/08/30 00:37:29;;;;;;;21.27;9.68;;;;;;;23.60;59.61;98642.34;5016354;28;20132;-74
2022/08/30 00:39:55;;;;;;;19.77;8.70;;;;;;;23.52;59.77;98634.72;4999920;28;20437;-74
2022/08/30 00:42:21;;;;;;;22.45;9.52;;;;;;;23.57;59.68;98642.84;5016070;28;20553;-74
2022/08/30 00:44:48;;;;;;;25.27;10.02;;;;;;;23.66;59.79;98638.56;4983661;28;20152;-74
2022/08/30 00:47:14;;;;;;;25.50;10.27;;;;;;;23.55;59.82;98633.34;5032561;28;20079;-73
2022/08/30 00:49:43;;;;;;;20.65;9.77;;;;;;;23.64;59.76;98629.03;5017432;28;20131;-74
2022/08/30 00:52:11;;;;;;;20.65;9.85;;;;;;;23.48;59.92;98638.22;5018026;28;20041;-74
2022/08/30 00:54:38;;;;;;;24.20;9.93;;;;;;;23.58;60.06;98630.94;5000236;28;20187;-74
2022/08/30 00:57:04;;;;;;;18.50;9.02;;;;;;;23.55;59.69;98630.63;5032342;28;20045;-73
2022/08/30 00:59:30;;;;;;;17.25;9.50;;;;;;;23.75;59.06;98631.53;5048634;28;20076;-73
2022/08/30 01:01:56;;;;;;;24.73;9.82;;;;;;;23.74;59.30;98629.09;4982495;28;20271;-74
2022/08/30 01:04:24;;;;;;;17.63;8.60;;;;;;;23.87;58.99;98631.28;4997383;28;20057;-74
2022/08/30 01:06:50;;;;;;;22.05;8.57;;;;;;;23.90;58.78;98617.19;4996913;28;20085;-74
2022/08/30 01:09:16;;;;;;;20.65;8.35;;;;;;;23.92;58.68;98639.44;5013189;28;20045;-74
2022/08/30 01:11:43;;;;;;;18.10;8.63;;;;;;;23.95;58.77;98622.63;4997041;28;20068;-74
2022/08/30 01:14:10;;;;;;;19.35;9.13;;;;;;;23.85;58.77;98628.84;5029767;28;20045;-74
2022/08/30 01:16:36;;;;;;;21.15;8.63;;;;;;;23.80;59.44;98615.25;5013515;28;20248;-72
2022/08/30 01:19:03;;;;;;;17.63;8.70;;;;;;;23.75;59.45;98615.25;5031334;28;20517;-73
2022/08/30 01:21:38;;;;;;;19.83;8.60;;;;;;;23.93;59.05;98616.63;5015566;28;20041;-73
2022/08/30 01:24:06;;;;;;;26.23;9.75;;;;;;;23.91;59.23;98619.63;5015215;28;20076;-73
2022/08/30 01:26:32;;;;;;;17.73;8.55;;;;;;;23.72;59.54;98607.66;5015355;28;20045;-72
2022/08/30 01:29:03;;;;;;;22.38;9.73;;;;;;;23.79;59.69;98623.66;4998972;28;20052;-75
2022/08/30 01:31:29;;;;;;;26.88;8.80;;;;;;;23.69;59.46;98602.78;5030716;28;20049;-75
2022/08/30 01:33:55;;;;;;;29.98;10.25;;;;;;;23.73;59.49;98619.31;5029623;28;20045;-75
2022/08/30 01:36:21;;;;;;;26.58;9.82;;;;;;;23.56;60.25;98610.56;4980079;28;20041;-75
2022/08/30 01:38:52;;;;;;;21.17;9.38;;;;;;;23.91;59.54;98607.97;5029075;28;20045;-75
2022/08/30 01:41:26;;;;;;;20.52;9.20;;;;;;;24.06;58.85;98599.88;5045989;28;20053;-74
2022/08/30 01:43:53;;;;;;;19.73;8.68;;;;;;;24.01;58.87;98599.88;4996398;28;20083;-75
2022/08/30 01:46:23;;;;;;;15.93;8.60;;;;;;;24.07;58.64;98604.22;5029133;28;20049;-75
2022/08/30 01:48:52;;;;;;;20.85;8.90;;;;;;;24.14;58.68;98591.22;5030646;28;20412;-75
2022/08/30 01:51:19;;;;;;;18.75;9.32;;;;;;;24.02;58.83;98596.06;5031449;28;20079;-74
2022/08/30 01:53:45;;;;;;;20.17;8.38;;;;;;;24.13;58.45;98595.81;5031487;28;20045;-75
2022/08/30 01:56:11;;;;;;;20.23;8.85;;;;;;;23.96;58.13;98589.00;4998369;28;20037;-77
2022/08/30 01:58:38;;;;;;;25.23;8.90;;;;;;;24.22;58.24;98607.75;4998447;28;20041;-76
2022/08/30 02:01:08;;;;;;;21.05;9.45;;;;;;;24.26;57.82;98602.63;5032125;28;20064;-75
2022/08/30 02:03:34;;;;;;;20.52;9.40;;;;;;;24.07;58.09;98615.91;5031150;28;20100;-74
2022/08/30 02:06:05;;;;;;;18.13;8.93;;;;;;;24.24;57.80;98615.63;5031239;28;20053;-74
2022/08/30 02:08:30;;;;;;;;;;;;;;;24.30;57.57;98617.25;5015298;28;20048;-78
2022/08/30 02:10:58;;;;;;;19.17;8.93;;;;;;;24.10;57.81;98617.25;4981949;28;20277;-75
2022/08/30 02:13:24;;;;;;;22.92;9.13;;;;;;;24.16;57.62;98616.16;5031298;28;20049;-76
2022/08/30 02:15:50;;;;;;;21.92;9.07;;;;;;;24.25;57.43;98622.69;5030968;28;20041;-75
2022/08/30 02:18:16;;;;;;;18.98;8.73;;;;;;;24.29;57.33;98623.78;4998092;28;20052;-75
2022/08/30 02:20:42;;;;;;;20.83;8.70;;;;;;;24.30;57.16;98620.81;4981766;28;20049;-75
2022/08/30 02:23:08;;;;;;;22.70;9.32;;;;;;;24.26;57.21;98619.69;5030634;28;20048;-74
2022/08/30 02:25:34;;;;;;;19.30;8.63;;;;;;;24.24;57.39;98616.47;5014514;28;20042;-74
2022/08/30 02:28:02;;;;;;;25.98;8.85;;;;;;;24.21;57.19;98616.19;4998182;28;20041;-74
2022/08/30 02:30:28;;;;;;;26.30;9.02;;;;;;;24.13;57.55;98620.25;5030913;28;20041;-73
2022/08/30 02:32:54;;;;;;;22.98;9.50;;;;;;;24.11;57.61;98621.59;4997719;28;20420;-75
2022/08/30 02:35:20;;;;;;;21.58;8.85;;;;;;;24.15;57.61;98630.81;5031796;28;20041;-74
2022/08/30 02:37:45;;;;;;;16.38;8.52;;;;;;;24.17;57.26;98628.66;5013880;28;20045;-74
2022/08/30 02:40:11;;;;;;;18.15;8.85;;;;;;;24.06;57.63;98625.13;4980817;28;20584;-78
2022/08/30 02:42:37;;;;;;;19.15;9.27;;;;;;;24.02;57.73;98625.91;5030421;28;20045;-78
2022/08/30 02:45:03;;;;;;;21.83;8.85;;;;;;;23.93;57.79;98622.06;5047203;28;20045;-78
2022/08/30 02:47:29;;;;;;;21.02;9.00;;;;;;;23.93;58.03;98635.63;5014214;28;20049;-78
2022/08/30 02:49:55;;;;;;;23.55;9.07;;;;;;;24.00;57.73;98620.75;5012736;28;20071;-78
2022/08/30 02:52:21;;;;;;;24.17;8.95;;;;;;;24.02;57.48;98625.91;5011343;28;20516;-77
2022/08/30 02:54:47;;;;;;;20.90;9.23;;;;;;;24.12;57.03;98623.22;5011416;28;20575;-77
2022/08/30 02:57:13;;;;;;;21.17;8.15;;;;;;;24.07;57.10;98615.91;4978746;28;20050;-77
2022/08/30 02:59:42;;;;;;;24.48;8.57;;;;;;;23.99;57.50;98621.84;4995059;28;20042;-77
2022/08/30 03:02:11;;;;;;;19.33;8.85;;;;;;;24.18;57.32;98620.25;5027467;28;20128;-77
2022/08/30 03:04:38;;;;;;;21.50;9.25;;;;;;;24.11;57.48;98621.59;4995682;28;20132;-77
2022/08/30 03:07:06;;;;;;;24.27;8.95;;;;;;;24.23;57.29;98631.09;5013332;28;20053;-76
2022/08/30 03:09:32;;;;;;;22.60;9.00;;;;;;;24.11;57.16;98627.03;4997352;28;20136;-76
2022/08/30 03:11:58;;;;;;;21.63;9.52;;;;;;;24.02;57.05;98624.03;5013240;28;20095;-76
2022/08/30 03:14:24;;;;;;;24.40;8.95;;;;;;;24.10;57.26;98628.09;5013546;28;20049;-76
2022/08/30 03:16:50;;;;;;;26.00;11.43;;;;;;;24.17;56.57;98632.16;4980746;28;20048;-76
2022/08/30 03:19:16;;;;;;;23.48;8.50;;;;;;;24.35;56.17;98633.56;5029579;28;20072;-76
2022/08/30 03:21:43;;;;;;;22.70;9.65;;;;;;;24.41;55.93;98632.47;5029457;28;20045;-77
2022/08/30 03:24:09;;;;;;;21.58;9.18;;;;;;;24.45;55.69;98641.69;5013423;28;20041;-74
2022/08/30 03:26:35;;;;;;;21.60;8.27;;;;;;;24.42;55.84;98629.47;5029782;28;20041;-77
2022/08/30 03:29:02;;;;;;;19.27;7.50;;;;;;;24.48;55.59;98636.53;5013472;28;20068;-77
2022/08/30 03:31:28;;;;;;;19.33;8.77;;;;;;;24.54;55.62;98638.16;4996754;28;20049;-77
2022/08/30 03:33:54;;;;;;;22.08;8.05;;;;;;;24.61;55.26;98644.16;4996767;28;20206;-77
2022/08/30 03:36:20;;;;;;;21.38;8.40;;;;;;;24.60;55.29;98649.84;4996916;28;20572;-77
2022/08/30 03:38:46;;;;;;;20.17;8.77;;;;;;;24.65;55.39;98641.69;5029364;28;20060;-74
2022/08/30 03:41:12;;;;;;;16.20;7.93;;;;;;;24.72;54.41;98645.00;4996439;28;20053;-74
2022/08/30 03:43:38;;;;;;;22.15;8.60;;;;;;;24.79;54.62;98640.91;5012947;28;20052;-75
2022/08/30 03:46:04;;;;;;;23.38;8.82;;;;;;;24.83;54.27;98639.25;5013051;28;20467;-76
2022/08/30 03:48:30;;;;;;;17.40;8.95;;;;;;;24.85;54.50;98641.69;5029616;28;20048;-77
2022/08/30 03:50:56;;;;;;;17.75;8.50;;;;;;;24.86;54.18;98651.50;4980435;28;20045;-77
2022/08/30 03:53:22;;;;;;;21.25;8.60;;;;;;;24.95;53.97;98643.59;5012931;28;20199;-75
2022/08/30 03:55:48;;;;;;;25.20;8.50;;;;;;;24.92;54.29;98645.75;5029377;28;20139;-75
2022/08/30 03:58:14;;;;;;;15.38;8.68;;;;;;;24.92;53.79;98648.47;5030073;28;20037;-75
2022/08/30 04:00:40;;;;;;;23.08;9.07;;;;;;;24.98;53.88;98648.47;4999788;28;20045;-75
2022/08/30 04:03:05;;;;;;;21.02;8.85;;;;;;;24.96;54.08;98654.19;4998483;28;20076;-75
2022/08/30 04:05:31;;;;;;;22.58;8.90;;;;;;;25.00;54.12;98641.69;5029147;28;20042;-76
2022/08/30 04:07:57;;;;;;;15.68;7.95;;;;;;;25.07;53.75;98644.09;4996470;28;20064;-76
2022/08/30 04:10:23;;;;;;;27.13;9.68;;;;;;;25.10;53.59;98644.38;5028858;28;20080;-75
2022/08/30 04:12:49;;;;;;;18.27;7.70;;;;;;;24.91;53.95;98651.47;4980081;28;20041;-76
2022/08/30 04:15:16;;;;;;;20.40;8.25;;;;;;;25.04;54.06;98648.19;4996134;28;20041;-76
2022/08/30 04:17:42;;;;;;;20.05;8.63;;;;;;;25.15;53.96;98655.25;5030202;28;20263;-75
2022/08/30 04:20:12;;;;;;;18.58;7.75;;;;;;;25.21;53.51;98653.31;5012576;28;20048;-76
2022/08/30 04:22:38;;;;;;;23.75;8.27;;;;;;;25.39;53.14;98660.91;5029230;28;20054;-77
2022/08/30 04:25:04;;;;;;;21.02;8.32;;;;;;;25.33;52.95;98662.81;5028746;28;20464;-76
2022/08/30 04:27:30;;;;;;;19.60;7.97;;;;;;;25.15;53.23;98651.69;5030002;28;20045;-75
2022/08/30 04:29:57;;;;;;;21.48;7.72;;;;;;;25.38;52.83;98651.13;5012019;28;20056;-75
2022/08/30 04:32:26;;;;;;;20.83;7.67;;;;;;;25.64;52.48;98667.06;5012504;28;20130;-75
2022/08/30 04:34:56;;;;;;;24.02;8.43;;;;;;;25.74;51.96;98656.13;5028485;28;20052;-77
2022/08/30 04:37:22;;;;;;;20.83;7.57;;;;;;;25.39;52.50;98644.59;4979677;28;20045;-74
2022/08/30 04:39:49;;;;;;;25.50;7.97;;;;;;;25.56;52.18;98659.47;5045217;28;20121;-74
2022/08/30 04:42:15;;;;;;;18.13;7.60;;;;;;;25.43;52.26;98642.97;5011935;28;20045;-75
2022/08/30 04:44:41;;;;;;;20.63;8.02;;;;;;;25.49;52.48;98656.25;5012359;28;20052;-75
2022/08/30 04:47:08;;;;;;;20.17;8.32;;;;;;;25.77;51.82;98652.06;5012460;28;20053;-75
2022/08/30 04:49:36;;;;;;;26.17;8.27;;;;;;;26.04;51.01;98658.75;5012501;28;20045;-74
2022/08/30 04:52:05;;;;;;;24.75;8.27;;;;;;;25.82;51.33;98647.41;5012072;28;20088;-74
2022/08/30 04:54:31;;;;;;;30.65;8.93;;;;;;;25.37;52.48;98655.72;5029745;28;20050;-76
2022/08/30 04:56:57;;;;;;;20.10;8.27;;;;;;;25.61;52.01;98653.22;4979552;28;20529;-74
2022/08/30 04:59:23;;;;;;;24.15;8.48;;;;;;;25.41;52.21;98650.56;5018426;28;20049;-76
2022/08/30 05:01:50;;;;;;;19.30;8.93;;;;;;;25.71;51.79;98648.53;4997117;28;20079;-75
2022/08/30 05:04:16;;;;;;;24.10;8.90;;;;;;;25.98;51.41;98653.56;5015272;28;20053;-76
2022/08/30 05:06:43;;;;;;;26.33;8.30;;;;;;;26.00;50.96;98651.41;5017096;28;20052;-77
2022/08/30 05:09:10;;;;;;;25.20;10.55;;;;;;;26.15;50.42;98659.50;5001546;28;20049;-75
2022/08/30 05:11:37;;;;;;;25.20;9.20;;;;;;;25.87;51.11;98652.81;5049380;28;20064;-79
2022/08/30 05:14:04;;;;;;;24.23;9.20;;;;;;;26.03;50.70;98648.13;5050394;28;20048;-80
2022/08/30 05:16:30;;;;;;;18.48;8.98;;;;;;;26.11;50.47;98667.41;5033543;28;20098;-77
2022/08/30 05:18:56;;;;;;;19.95;9.27;;;;;;;26.20;50.48;98668.41;5033609;28;20045;-80
2022/08/30 05:21:25;;;;;;;18.98;8.18;;;;;;;26.52;49.86;98664.38;5000996;28;20045;-78
2022/08/30 05:23:57;;;;;;;16.52;7.95;;;;;;;26.62;49.59;98672.50;5017278;28;20049;-80
2022/08/30 05:26:26;;;;;;;21.10;8.60;;;;;;;26.78;48.97;98663.94;5050099;28;20052;-82
2022/08/30 05:28:56;;;;;;;18.20;8.55;;;;;;;27.03;48.34;98665.59;5050653;28;20595;-81
2022/08/30 05:31:31;;;;;;;17.67;7.85;;;;;;;27.19;48.42;98672.50;5050400;28;20053;-80
2022/08/30 05:33:57;;;;;;;17.98;8.40;;;;;;;27.30;47.66;98671.34;5017988;28;20044;-77
2022/08/30 05:36:25;;;;;;;18.10;8.27;;;;;;;27.67;46.96;98666.00;5016693;28;20040;-82
2022/08/30 05:38:52;;;;;;;25.05;8.98;;;;;;;28.00;45.84;98671.31;5016687;28;20060;-75
2022/08/30 05:41:20;;;;;;;19.17;8.98;;;;;;;27.98;45.74;98664.53;5049591;28;20048;-77
2022/08/30 05:43:47;;;;;;;20.45;8.00;;;;;;;27.88;45.39;98651.84;5049916;28;20049;-78
2022/08/30 05:46:18;;;;;;;21.88;8.02;;;;;;;27.75;46.00;98670.81;5014183;28;20531;-80
2022/08/30 05:48:44;;;;;;;23.60;8.27;;;;;;;27.83;45.74;98670.19;5039868;28;20041;-73
2022/08/30 05:52:00;;;;;;;17.15;8.13;;;;;;;28.17;44.96;98679.00;5012492;28;20036;-78
2022/08/30 05:54:26;;;;;;;21.15;8.40;;;;;;;28.20;45.20;98683.06;5017909;28;20055;-75
2022/08/30 05:56:51;;;;;;;20.92;8.70;;;;;;;28.30;44.86;98688.38;5009069;28;20492;-75
2022/08/30 05:59:18;;;;;;;18.50;8.40;;;;;;;28.08;44.92;98685.44;5030493;28;20047;-74
2022/08/30 06:01:46;;;;;;;20.85;8.93;;;;;;;28.20;44.98;98697.50;4999882;28;20041;-75
2022/08/30 06:04:12;;;;;;;16.65;8.32;;;;;;;28.09;44.89;98666.03;5016729;28;20065;-73
2022/08/30 06:06:40;;;;;;;19.40;8.98;;;;;;;28.29;44.86;98684.03;5016611;28;20055;-72
2022/08/30 06:09:08;;;;;;;25.58;8.63;;;;;;;28.05;45.16;98684.09;5049942;28;20041;-73
2022/08/30 06:11:34;;;;;;;15.27;8.40;;;;;;;28.28;44.88;98690.59;4999859;28;20065;-72
2022/08/30 06:14:01;;;;;;;23.90;9.00;;;;;;;28.22;44.63;98689.03;5016333;28;20041;-72
2022/08/30 06:16:27;;;;;;;19.88;8.95;;;;;;;28.29;44.85;98694.94;4998870;28;20049;-71
2022/08/30 06:18:55;;;;;;;17.70;8.10;;;;;;;28.29;44.60;98693.03;5032066;28;20535;-72
2022/08/30 06:21:26;;;;;;;19.35;8.10;;;;;;;28.60;43.90;98688.75;5032377;28;20045;-71
2022/08/30 06:23:54;;;;;;;21.58;8.90;;;;;;;28.68;43.03;98690.00;5000244;28;20139;-73
2022/08/30 06:26:20;;;;;;;28.92;9.43;;;;;;;28.34;43.61;98703.88;5049455;28;20087;-72
2022/08/30 06:28:47;;;;;;;22.88;9.20;;;;;;;28.60;43.19;98702.41;5016016;28;20076;-72
2022/08/30 06:31:16;;;;;;;16.75;9.18;;;;;;;28.97;42.44;98710.53;4999876;28;20048;-71
2022/08/30 06:33:42;;;;;;;16.58;8.15;;;;;;;29.13;41.88;98709.22;5032471;28;20053;-71
2022/08/30 06:36:20;;;;;;;22.75;9.32;;;;;;;29.73;40.98;98717.41;5029399;28;20547;-72
2022/08/30 06:38:49;;;;;;;23.95;8.93;;;;;;;30.16;40.48;98721.41;5045342;28;20575;-71
2022/08/30 06:41:18;;;;;;;22.52;8.85;;;;;;;30.43;39.35;98713.19;5029945;28;20507;-73
2022/08/30 06:43:44;;;;;;;21.23;8.82;;;;;;;30.33;39.08;98713.41;5046758;28;20052;-72
2022/08/30 06:46:13;;;;;;;17.02;8.45;;;;;;;30.66;38.68;98721.09;5046580;28;20045;-72
2022/08/30 06:48:39;;;;;;;16.55;8.18;;;;;;;30.75;38.13;98723.97;5046017;28;20053;-73
2022/08/30 06:51:08;;;;;;;21.77;9.50;;;;;;;30.79;38.06;98724.94;4999146;28;20931;-72
2022/08/30 06:53:34;;;;;;;23.90;8.80;;;;;;;31.02;37.94;98719.16;5048823;28;20139;-71
2022/08/30 06:56:04;;;;;;;21.35;8.77;;;;;;;31.47;37.22;98724.59;5048673;28;20055;-73
2022/08/30 06:58:30;;;;;;;21.50;8.73;;;;;;;31.32;37.17;98719.53;5049609;28;20052;-71
2022/08/30 07:00:56;;;;;;;21.58;8.90;;;;;;;31.37;36.71;98731.16;5048516;28;20472;-73
2022/08/30 07:03:24;;;;;;;16.80;8.85;;;;;;;31.53;36.58;98717.84;5049234;28;20537;-72
2022/08/30 07:05:50;;;;;;;20.35;8.60;;;;;;;31.41;36.91;98712.97;5047961;28;20044;-73
2022/08/30 07:08:16;;;;;;;17.88;8.48;;;;;;;31.60;36.84;98716.25;4999041;28;20419;-79
2022/08/30 07:10:42;;;;;;;21.90;8.75;;;;;;;31.82;36.07;98724.44;5032462;28;20538;-77
2022/08/30 07:13:08;;;;;;;22.48;8.60;;;;;;;32.16;35.37;98721.81;5007772;28;20052;-74
2022/08/30 07:15:35;;;;;;;21.95;7.97;;;;;;;32.15;35.48;98725.66;5014366;28;20959;-77
2022/08/30 07:20:46;;;;;;;20.08;8.43;;;;;;;32.23;34.60;98724.88;5016745;28;20044;-78
2022/08/30 07:23:11;;;;;;;17.20;8.15;;;;;;;31.40;36.33;98716.03;5031615;28;20057;-76
2022/08/30 07:25:39;;;;;;;16.02;8.98;;;;;;;32.13;35.65;98719.69;4998499;28;20040;-74
2022/08/30 07:28:05;;;;;;;15.48;8.20;;;;;;;32.15;34.91;98722.91;5031052;28;20336;-76
2022/08/30 07:30:32;;;;;;;22.13;8.55;;;;;;;32.57;34.46;98715.88;5031510;28;20535;-76
2022/08/30 07:32:58;;;;;;;26.05;8.30;;;;;;;33.15;33.38;98720.88;4998319;28;20041;-77
2022/08/30 07:35:23;;;;;;;20.73;8.45;;;;;;;33.09;33.15;98711.97;4998487;28;20148;-75
2022/08/30 07:37:49;;;;;;;20.00;8.32;;;;;;;33.96;32.48;98720.47;4998247;28;20044;-75
2022/08/30 07:40:15;;;;;;;20.38;8.27;;;;;;;35.27;30.30;98717.97;5045789;28;20481;-77
2022/08/30 07:42:41;;;;;;;15.02;7.85;;;;;;;35.82;28.63;98701.75;5014191;28;20570;-75
2022/08/30 07:45:09;;;;;;;19.38;8.10;;;;;;;36.12;28.33;98697.59;4998585;28;20076;-75
2022/08/30 07:47:35;;;;;;;20.33;8.13;;;;;;;36.39;27.69;98704.38;5014971;28;20055;-74
2022/08/30 07:50:01;;;;;;;26.23;8.63;;;;;;;36.45;27.64;98689.13;4997588;28;20044;-74
2022/08/30 07:52:29;;;;;;;23.58;8.20;;;;;;;36.23;28.02;98700.72;5014849;28;20048;-73
2022/08/30 07:54:56;;;;;;;19.67;8.27;;;;;;;35.78;28.69;98694.47;5029851;28;20073;-77
2022/08/30 07:57:33;;;;;;;23.48;9.10;;;;;;;35.55;28.89;98705.97;4999467;28;20162;-77
2022/08/30 08:00:03;;;;;;;18.40;9.23;;;;;;;34.66;30.26;98692.09;5037645;28;20045;-76
2022/08/30 08:02:39;;;;;;;21.88;9.40;;;;;;;34.99;30.17;98700.41;5022009;28;20067;-78
2022/08/30 08:05:07;;;;;;;16.63;8.82;;;;;;;35.33;29.48;98700.03;5034866;28;20049;-76
2022/08/30 08:07:34;;;;;;;22.30;9.02;;;;;;;36.06;28.20;98703.72;5005073;28;20041;-78
2022/08/30 08:10:00;;;;;;;19.65;8.38;;;;;;;36.13;27.69;98696.44;5026489;28;20049;-79
2022/08/30 08:12:27;;;;;;;16.63;8.82;;;;;;;35.81;27.85;98700.13;5010626;28;20049;-78
2022/08/30 08:14:53;;;;;;;18.45;8.48;;;;;;;35.39;28.49;98705.03;5034351;28;20046;-78
2022/08/30 08:17:19;;;;;;;14.88;8.20;;;;;;;35.18;29.15;98707.03;5013073;28;20493;-79
2022/08/30 08:19:44;;;;;;;21.98;9.25;;;;;;;35.31;28.84;98699.56;5035584;28;20083;-79
2022/08/30 08:22:10;;;;;;;19.02;8.82;;;;;;;36.14;27.63;98695.28;5005032;28;20041;-79
2022/08/30 08:24:36;;;;;;;19.17;8.63;;;;;;;36.03;27.54;98704.41;5020973;28;20049;-78
2022/08/30 08:27:02;;;;;;;21.30;8.35;;;;;;;36.81;26.31;98694.59;5021420;28;20076;-78
2022/08/30 08:29:28;;;;;;;17.65;9.35;;;;;;;37.93;25.02;98694.84;5018627;28;20124;-76
2022/08/30 08:31:57;;;;;;;16.55;8.43;;;;;;;38.74;24.26;98693.91;4987980;28;20063;-77
2022/08/30 08:34:22;;;;;;;17.73;7.95;;;;;;;39.52;23.12;98696.25;4993722;28;20043;-77
2022/08/30 08:36:49;;;;;;;19.75;9.48;;;;;;;40.68;21.32;98693.31;5020768;28;20037;-77
2022/08/30 08:39:15;;;;;;;15.45;9.05;;;;;;;41.01;20.24;98690.50;5000341;28;20103;-78
2022/08/30 08:42:03;;;;;;;18.55;8.45;;;;;;;42.61;18.46;98685.91;5001239;28;20072;-77
2022/08/30 08:44:57;;;;;;;19.20;8.33;;;;;;;44.54;16.44;98691.69;5002228;28;20045;-77
2022/08/30 08:48:08;;;;;;;15.45;8.25;;;;;;;46.16;14.72;98683.09;5018242;28;20143;-76
2022/08/30 08:50:35;;;;;;;19.27;8.43;;;;;;;46.36;14.65;98680.47;5049638;28;20135;-78
2022/08/30 08:55:53;;;;;;;24.33;9.07;;;;;;;45.84;14.91;98683.34;5034720;28;20052;-76
2022/08/30 08:58:27;;;;;;;15.40;8.38;;;;;;;45.94;14.73;98678.88;5001376;28;20492;-71
2022/08/30 09:00:55;;;;;;;19.20;8.25;;;;;;;46.10;15.08;98682.69;5017155;28;20562;-70
2022/08/30 09:03:22;;;;;;;24.00;8.80;;;;;;;46.33;14.48;98687.72;5049895;28;20060;-71
2022/08/30 09:05:49;;;;;;;19.60;8.93;;;;;;;46.47;14.30;98686.75;5033685;28;20045;-71
2022/08/30 09:08:17;;;;;;;18.70;8.90;;;;;;;47.92;13.29;98692.75;5002012;28;20051;-73
2022/08/30 09:10:51;;;;;;;20.15;8.95;;;;;;;49.53;11.32;98699.94;5051015;28;20041;-71
2022/08/30 09:13:19;;;;;;;20.50;8.10;;;;;;;49.46;11.57;98688.00;5017267;28;20049;-73
2022/08/30 09:15:45;;;;;;;16.77;8.07;;;;;;;50.65;10.96;98682.03;5034777;28;20048;-70
2022/08/30 09:18:11;;;;;;;16.27;8.40;;;;;;;50.90;9.87;98682.13;5050850;28;20048;-72
2022/08/30 09:20:40;;;;;;;21.33;8.93;;;;;;;51.49;9.60;98675.81;5000608;28;20045;-72
2022/08/30 09:23:28;;;;;;;25.10;8.85;;;;;;;52.37;8.80;98679.28;5034318;28;20098;-70
2022/08/30 09:26:00;;;;;;;21.60;8.00;;;;;;;52.40;9.11;98689.69;5003036;28;20052;-72
2022/08/30 09:28:31;;;;;;;16.52;8.18;;;;;;;53.40;8.15;98686.25;5001384;28;20154;-73
2022/08/30 09:31:41;;;;;;;22.52;8.52;;;;;;;52.02;8.83;98691.06;5001009;28;20068;-73
2022/08/30 09:34:08;;;;;;;17.75;9.00;;;;;;;52.05;8.88;98679.63;5032497;28;20539;-73
2022/08/30 09:36:54;;;;;;;17.35;8.07;;;;;;;53.00;8.46;98682.56;5016537;28;20531;-74
2022/08/30 09:39:36;;;;;;;20.02;8.38;;;;;;;52.31;8.26;98669.78;5016353;28;20044;-74
2022/08/30 09:42:14;;;;;;;14.52;8.45;;;;;;;52.29;8.31;98677.13;5049861;28;20134;-73
2022/08/30 09:44:40;;;;;;;18.55;8.50;;;;;;;52.18;8.36;98666.19;5050623;28;20048;-71
2022/08/30 09:47:21;;;;;;;17.73;8.40;;;;;;;51.33;8.70;98676.75;5017671;28;20045;-72
2022/08/30 09:49:48;;;;;;;19.55;8.70;;;;;;;50.68;9.43;98675.50;5001418;28;20496;-73
2022/08/30 09:52:41;;;;;;;20.17;7.70;;;;;;;48.61;10.81;98666.50;5033536;28;20057;-72
2022/08/30 09:55:29;;;;;;;18.63;8.07;;;;;;;49.39;10.21;98668.44;5001146;28;20051;-72
2022/08/30 09:58:19;;;;;;;17.25;8.15;;;;;;;49.42;10.21;98668.34;5000932;28;20044;-73
2022/08/30 10:00:49;;;;;;;16.98;8.40;;;;;;;48.15;11.31;98673.00;5015836;28;20068;-71
2022/08/30 10:03:32;;;;;;;25.10;8.18;;;;;;;47.98;11.41;98640.34;5033808;28;20064;-71
2022/08/30 10:06:27;;;;;;;17.08;8.27;;;;;;;48.23;11.39;98659.59;5017150;28;20075;-71
2022/08/30 10:09:18;;;;;;;15.52;8.38;;;;;;;47.05;12.04;98664.75;5014925;28;20052;-71
2022/08/30 10:11:59;;;;;;;18.50;7.93;;;;;;;45.92;12.96;98662.44;5048923;28;20091;-71
2022/08/30 10:14:50;;;;;;;19.90;9.15;;;;;;;45.55;13.35;98641.91;5032380;28;20037;-72
2022/08/30 10:17:39;;;;;;;13.18;7.60;;;;;;;45.94;13.49;98660.00;5000284;28;20044;-71
2022/08/30 10:20:08;;;;;;;17.25;8.90;;;;;;;45.45;13.53;98637.19;5015897;28;20080;-72
2022/08/30 10:22:38;;;;;;;16.75;8.40;;;;;;;45.40;13.48;98651.63;5015732;28;20052;-70
2022/08/30 10:25:20;;;;;;;14.40;7.88;;;;;;;44.52;14.41;98647.28;5016863;28;20420;-71
2022/08/30 10:28:16;;;;;;;22.05;7.93;;;;;;;44.56;14.29;98642.44;5049788;28;20037;-71
2022/08/30 10:30:51;;;;;;;18.02;7.80;;;;;;;45.12;14.12;98647.00;5025318;28;20072;-72
2022/08/30 10:33:22;;;;;;;16.63;7.93;;;;;;;44.55;14.62;98640.88;5016669;28;20048;-72
2022/08/30 10:35:53;;;;;;;19.60;7.93;;;;;;;44.11;15.07;98642.59;4999803;28;20045;-72
2022/08/30 10:38:28;;;;;;;20.42;8.13;;;;;;;43.54;15.26;98653.03;5015455;28;20041;-72
2022/08/30 10:41:15;;;;;;;12.30;7.40;;;;;;;43.52;15.28;98649.84;5031882;28;20048;-72
2022/08/30 10:43:59;;;;;;;15.73;7.15;;;;;;;43.60;15.59;98650.63;5033672;28;20052;-71
2022/08/30 10:46:46;;;;;;;16.38;7.97;;;;;;;43.24;16.06;98644.22;5032899;28;20373;-70
2022/08/30 10:49:21;;;;;;;18.60;8.63;;;;;;;43.27;15.94;98646.22;5015439;28;20116;-71
2022/08/30 10:52:27;;;;;;;24.33;7.55;;;;;;;42.87;16.14;98652.09;5038129;28;20086;-70
2022/08/30 10:54:58;;;;;;;19.17;8.10;;;;;;;43.96;15.35;98644.66;5008996;28;20488;-70
2022/08/30 10:57:25;;;;;;;19.15;8.30;;;;;;;44.34;15.28;98646.56;5012491;28;20047;-72
2022/08/30 10:59:58;;;;;;;19.42;7.65;;;;;;;44.90;14.44;98645.53;4996482;28;20049;-71
2022/08/30 11:02:45;;;;;;;19.40;7.07;;;;;;;44.90;14.31;98630.72;5011569;28;20074;-71
2022/08/30 11:05:28;;;;;;;17.17;6.65;;;;;;;44.02;15.03;98639.41;4997286;28;20045;-71
2022/08/30 11:07:58;;;;;;;19.33;7.22;;;;;;;42.61;16.39;98635.63;5013314;28;20041;-71
2022/08/30 11:11:12;;;;;;;20.75;7.43;;;;;;;42.24;16.69;98630.22;5032796;28;20116;-71
2022/08/30 11:13:39;;;;;;;16.38;7.00;;;;;;;42.29;16.02;98638.22;5037323;28;20318;-71
2022/08/30 11:16:14;;;;;;;14.85;7.00;;;;;;;42.50;16.29;98631.97;5025185;28;20036;-71
2022/08/30 11:18:52;;;;;;;15.02;7.32;;;;;;;42.25;16.63;98634.63;4998396;28;20045;-69
2022/08/30 11:21:18;;;;;;;14.35;7.13;;;;;;;43.27;15.74;98629.44;4995623;28;20065;-70
2022/08/30 11:24:19;;;;;;;12.35;7.20;;;;;;;44.77;14.38;98641.59;5012322;28;20096;-70
2022/08/30 11:26:55;;;;;;;15.23;6.45;;;;;;;44.99;14.22;98631.84;4985629;28;20473;-68
2022/08/30 11:29:33;;;;;;;12.68;6.55;;;;;;;44.67;14.20;98629.22;5011935;28;20081;-70
2022/08/30 11:32:20;;;;;;;16.35;6.78;;;;;;;43.40;14.82;98625.03;5011571;28;20065;-70
2022/08/30 11:34:45;;;;;;;14.75;6.60;;;;;;;42.00;16.10;98619.75;5012626;28;20128;-68
2022/08/30 11:37:36;;;;;;;13.68;6.30;;;;;;;41.07;16.88;98618.53;5012023;28;20049;-71
2022/08/30 11:40:08;;;;;;;14.32;6.70;;;;;;;39.77;18.14;98616.81;5012076;28;20045;-68
2022/08/30 11:42:39;;;;;;;12.43;6.53;;;;;;;38.96;19.05;98607.06;4995422;28;20053;-69
2022/08/30 11:45:23;;;;;;;15.27;6.55;;;;;;;38.87;19.01;98611.25;5029767;28;20063;-69
2022/08/30 11:48:04;;;;;;;15.70;6.97;;;;;;;38.60;19.60;98613.91;5012017;28;20077;-68